Pickton, Texas
Current Conditions -  °F | °C
As of 3:35 PM on Saturday 25 Oct 2014 (Local Time) from KSLR Reporting Station
Clear Clear  
Wind Chill: 87°   Ceiling: Unl
Heat Index: 87°   Visibility: 10mi
Dew Point: 60°   Wind: 5mph
Humidity: 40%   Direction: 240°WSW
Pressure: 30.09"   Gusts: NA
Location:  33.03°N, 95.39°W
Report Text: KSLR 252035Z AUTO 24004KT 10SM CLR 30/15 A3009 RMK AO2 T03040154
Loading
Personal Weather Stations






























Interactive Weather Map New forecast layout! Learn more

10-Day Weather Forecast

Advertisements
Track Severe Weather on mobile